sensor_id;sensor_type;location;lat;lon;timestamp;P1;durP1;ratioP1;P2;durP2;ratioP2
2810;SDS011;1413;52.440;13.506;2022-07-22T00:02:20;15.90;;;9.02;;
2810;SDS011;1413;52.440;13.506;2022-07-22T00:04:48;13.23;;;8.77;;
2810;SDS011;1413;52.440;13.506;2022-07-22T00:07:15;16.30;;;10.90;;
2810;SDS011;1413;52.440;13.506;2022-07-22T00:09:43;26.05;;;13.77;;
2810;SDS011;1413;52.440;13.506;2022-07-22T00:12:10;44.25;;;21.77;;
2810;SDS011;1413;52.440;13.506;2022-07-22T00:14:39;18.80;;;10.77;;
2810;SDS011;1413;52.440;13.506;2022-07-22T00:17:07;14.80;;;8.93;;
2810;SDS011;1413;52.440;13.506;2022-07-22T00:19:34;14.02;;;8.55;;
2810;SDS011;1413;52.440;13.506;2022-07-22T00:22:03;13.07;;;8.40;;
2810;SDS011;1413;52.440;13.506;2022-07-22T00:24:31;12.93;;;8.02;;
2810;SDS011;1413;52.440;13.506;2022-07-22T00:26:58;13.35;;;8.40;;
2810;SDS011;1413;52.440;13.506;2022-07-22T00:29:26;11.25;;;7.97;;
2810;SDS011;1413;52.440;13.506;2022-07-22T00:31:55;11.05;;;7.53;;
2810;SDS011;1413;52.440;13.506;2022-07-22T00:34:22;10.65;;;7.80;;
2810;SDS011;1413;52.440;13.506;2022-07-22T00:36:50;12.25;;;8.15;;
2810;SDS011;1413;52.440;13.506;2022-07-22T00:39:17;15.05;;;8.23;;
2810;SDS011;1413;52.440;13.506;2022-07-22T00:41:45;13.70;;;7.90;;
2810;SDS011;1413;52.440;13.506;2022-07-22T00:44:12;11.82;;;7.38;;
2810;SDS011;1413;52.440;13.506;2022-07-22T00:46:40;11.27;;;7.15;;
2810;SDS011;1413;52.440;13.506;2022-07-22T00:49:09;10.52;;;7.00;;
2810;SDS011;1413;52.440;13.506;2022-07-22T00:51:37;8.57;;;6.28;;
2810;SDS011;1413;52.440;13.506;2022-07-22T00:54:05;11.25;;;7.30;;
2810;SDS011;1413;52.440;13.506;2022-07-22T00:56:33;12.63;;;7.80;;
2810;SDS011;1413;52.440;13.506;2022-07-22T00:59:03;11.65;;;7.72;;
2810;SDS011;1413;52.440;13.506;2022-07-22T01:01:31;9.60;;;6.82;;
2810;SDS011;1413;52.440;13.506;2022-07-22T01:03:59;10.38;;;7.22;;
2810;SDS011;1413;52.440;13.506;2022-07-22T01:06:28;11.65;;;7.43;;
2810;SDS011;1413;52.440;13.506;2022-07-22T01:08:56;12.13;;;7.88;;
2810;SDS011;1413;52.440;13.506;2022-07-22T01:11:24;11.13;;;7.30;;
2810;SDS011;1413;52.440;13.506;2022-07-22T01:13:53;9.65;;;6.68;;
2810;SDS011;1413;52.440;13.506;2022-07-22T01:16:21;10.25;;;7.28;;
2810;SDS011;1413;52.440;13.506;2022-07-22T01:18:48;12.25;;;7.15;;
2810;SDS011;1413;52.440;13.506;2022-07-22T01:21:17;9.35;;;6.68;;
2810;SDS011;1413;52.440;13.506;2022-07-22T01:23:45;10.80;;;7.03;;
2810;SDS011;1413;52.440;13.506;2022-07-22T01:26:13;9.32;;;5.70;;
2810;SDS011;1413;52.440;13.506;2022-07-22T01:28:41;8.40;;;5.78;;
2810;SDS011;1413;52.440;13.506;2022-07-22T01:31:08;8.05;;;5.40;;
2810;SDS011;1413;52.440;13.506;2022-07-22T01:33:36;9.15;;;5.70;;
2810;SDS011;1413;52.440;13.506;2022-07-22T01:36:04;8.38;;;5.15;;
2810;SDS011;1413;52.440;13.506;2022-07-22T01:38:33;9.32;;;5.28;;
2810;SDS011;1413;52.440;13.506;2022-07-22T01:41:01;7.78;;;5.03;;
2810;SDS011;1413;52.440;13.506;2022-07-22T01:43:28;7.50;;;4.65;;
2810;SDS011;1413;52.440;13.506;2022-07-22T01:45:56;8.27;;;5.35;;
2810;SDS011;1413;52.440;13.506;2022-07-22T01:48:24;8.02;;;5.18;;
2810;SDS011;1413;52.440;13.506;2022-07-22T01:50:52;7.60;;;4.95;;
2810;SDS011;1413;52.440;13.506;2022-07-22T01:53:19;10.65;;;4.75;;
2810;SDS011;1413;52.440;13.506;2022-07-22T01:55:48;9.52;;;5.15;;
2810;SDS011;1413;52.440;13.506;2022-07-22T01:58:16;9.23;;;5.60;;
2810;SDS011;1413;52.440;13.506;2022-07-22T02:00:43;8.05;;;5.15;;
2810;SDS011;1413;52.440;13.506;2022-07-22T02:03:11;7.95;;;5.00;;
2810;SDS011;1413;52.440;13.506;2022-07-22T02:05:39;8.30;;;4.32;;
2810;SDS011;1413;52.440;13.506;2022-07-22T02:08:07;8.43;;;5.15;;
2810;SDS011;1413;52.440;13.506;2022-07-22T02:10:35;7.75;;;5.00;;
2810;SDS011;1413;52.440;13.506;2022-07-22T02:13:05;11.75;;;5.20;;
2810;SDS011;1413;52.440;13.506;2022-07-22T02:15:32;8.88;;;4.95;;
2810;SDS011;1413;52.440;13.506;2022-07-22T02:18:00;10.40;;;5.07;;
2810;SDS011;1413;52.440;13.506;2022-07-22T02:20:28;11.32;;;5.20;;
2810;SDS011;1413;52.440;13.506;2022-07-22T02:22:55;8.35;;;4.43;;
2810;SDS011;1413;52.440;13.506;2022-07-22T02:25:23;7.55;;;5.13;;
2810;SDS011;1413;52.440;13.506;2022-07-22T02:27:50;8.00;;;4.55;;
2810;SDS011;1413;52.440;13.506;2022-07-22T02:30:19;9.70;;;5.38;;
2810;SDS011;1413;52.440;13.506;2022-07-22T02:32:46;9.02;;;4.78;;
2810;SDS011;1413;52.440;13.506;2022-07-22T02:35:14;8.52;;;4.97;;
2810;SDS011;1413;52.440;13.506;2022-07-22T02:37:42;8.68;;;4.82;;
2810;SDS011;1413;52.440;13.506;2022-07-22T02:40:11;9.13;;;5.22;;
2810;SDS011;1413;52.440;13.506;2022-07-22T02:42:39;9.30;;;5.10;;
2810;SDS011;1413;52.440;13.506;2022-07-22T02:45:07;7.22;;;4.85;;
2810;SDS011;1413;52.440;13.506;2022-07-22T02:47:37;8.88;;;5.93;;
2810;SDS011;1413;52.440;13.506;2022-07-22T02:50:11;9.15;;;5.00;;
2810;SDS011;1413;52.440;13.506;2022-07-22T02:52:39;8.73;;;5.00;;
2810;SDS011;1413;52.440;13.506;2022-07-22T02:55:07;10.57;;;5.03;;
2810;SDS011;1413;52.440;13.506;2022-07-22T02:57:34;7.50;;;5.22;;
2810;SDS011;1413;52.440;13.506;2022-07-22T03:00:02;10.43;;;5.47;;
2810;SDS011;1413;52.440;13.506;2022-07-22T03:02:30;8.90;;;6.15;;
2810;SDS011;1413;52.440;13.506;2022-07-22T03:04:59;9.18;;;5.78;;
2810;SDS011;1413;52.440;13.506;2022-07-22T03:07:27;10.27;;;6.15;;
2810;SDS011;1413;52.440;13.506;2022-07-22T03:09:55;8.65;;;6.10;;
2810;SDS011;1413;52.440;13.506;2022-07-22T03:12:28;10.07;;;6.05;;
2810;SDS011;1413;52.440;13.506;2022-07-22T03:14:55;8.80;;;5.85;;
2810;SDS011;1413;52.440;13.506;2022-07-22T03:17:23;10.55;;;6.28;;
2810;SDS011;1413;52.440;13.506;2022-07-22T03:19:50;10.63;;;6.18;;
2810;SDS011;1413;52.440;13.506;2022-07-22T03:22:19;11.60;;;6.43;;
2810;SDS011;1413;52.440;13.506;2022-07-22T03:24:47;11.30;;;7.03;;
2810;SDS011;1413;52.440;13.506;2022-07-22T03:27:14;10.80;;;7.05;;
2810;SDS011;1413;52.440;13.506;2022-07-22T03:29:42;9.82;;;6.30;;
2810;SDS011;1413;52.440;13.506;2022-07-22T03:32:09;9.90;;;6.07;;
2810;SDS011;1413;52.440;13.506;2022-07-22T03:34:37;9.48;;;6.35;;
2810;SDS011;1413;52.440;13.506;2022-07-22T03:37:04;10.18;;;6.70;;
2810;SDS011;1413;52.440;13.506;2022-07-22T03:39:33;11.50;;;7.53;;
2810;SDS011;1413;52.440;13.506;2022-07-22T03:42:01;13.77;;;6.70;;
2810;SDS011;1413;52.440;13.506;2022-07-22T03:44:28;11.68;;;7.25;;
2810;SDS011;1413;52.440;13.506;2022-07-22T03:46:56;12.40;;;7.70;;
2810;SDS011;1413;52.440;13.506;2022-07-22T03:49:23;12.70;;;7.97;;
2810;SDS011;1413;52.440;13.506;2022-07-22T03:51:51;11.27;;;7.43;;
2810;SDS011;1413;52.440;13.506;2022-07-22T03:54:19;10.90;;;7.30;;
2810;SDS011;1413;52.440;13.506;2022-07-22T03:56:47;14.93;;;8.13;;
2810;SDS011;1413;52.440;13.506;2022-07-22T03:59:15;14.65;;;8.52;;
2810;SDS011;1413;52.440;13.506;2022-07-22T04:01:43;13.50;;;8.57;;
2810;SDS011;1413;52.440;13.506;2022-07-22T04:04:11;12.80;;;8.32;;
2810;SDS011;1413;52.440;13.506;2022-07-22T04:06:38;11.70;;;7.78;;
2810;SDS011;1413;52.440;13.506;2022-07-22T04:09:06;13.45;;;8.32;;
2810;SDS011;1413;52.440;13.506;2022-07-22T04:11:34;20.40;;;8.45;;
2810;SDS011;1413;52.440;13.506;2022-07-22T04:14:03;12.02;;;7.78;;
2810;SDS011;1413;52.440;13.506;2022-07-22T04:16:30;13.43;;;8.27;;
2810;SDS011;1413;52.440;13.506;2022-07-22T04:18:59;12.10;;;8.20;;
2810;SDS011;1413;52.440;13.506;2022-07-22T04:21:27;11.93;;;7.95;;
2810;SDS011;1413;52.440;13.506;2022-07-22T04:23:55;14.63;;;8.60;;
2810;SDS011;1413;52.440;13.506;2022-07-22T04:26:27;14.15;;;8.85;;
2810;SDS011;1413;52.440;13.506;2022-07-22T04:28:55;13.35;;;8.20;;
2810;SDS011;1413;52.440;13.506;2022-07-22T04:31:25;14.20;;;8.65;;
2810;SDS011;1413;52.440;13.506;2022-07-22T04:33:53;11.90;;;8.02;;
2810;SDS011;1413;52.440;13.506;2022-07-22T04:36:20;13.95;;;7.93;;
2810;SDS011;1413;52.440;13.506;2022-07-22T04:38:48;12.05;;;8.23;;
2810;SDS011;1413;52.440;13.506;2022-07-22T04:41:16;12.70;;;8.48;;
2810;SDS011;1413;52.440;13.506;2022-07-22T04:43:46;13.05;;;7.82;;
2810;SDS011;1413;52.440;13.506;2022-07-22T04:46:14;12.23;;;8.02;;
2810;SDS011;1413;52.440;13.506;2022-07-22T04:48:43;11.02;;;8.00;;
2810;SDS011;1413;52.440;13.506;2022-07-22T04:51:10;12.02;;;8.65;;
2810;SDS011;1413;52.440;13.506;2022-07-22T04:53:38;11.52;;;7.60;;
2810;SDS011;1413;52.440;13.506;2022-07-22T04:56:14;15.05;;;7.80;;
2810;SDS011;1413;52.440;13.506;2022-07-22T04:58:42;13.27;;;8.07;;
2810;SDS011;1413;52.440;13.506;2022-07-22T05:01:09;13.77;;;8.18;;
2810;SDS011;1413;52.440;13.506;2022-07-22T05:03:37;12.73;;;8.27;;
2810;SDS011;1413;52.440;13.506;2022-07-22T05:06:06;12.90;;;8.32;;
2810;SDS011;1413;52.440;13.506;2022-07-22T05:08:34;13.77;;;8.07;;
2810;SDS011;1413;52.440;13.506;2022-07-22T05:11:02;13.48;;;8.30;;
2810;SDS011;1413;52.440;13.506;2022-07-22T05:13:29;14.82;;;8.88;;
2810;SDS011;1413;52.440;13.506;2022-07-22T05:15:57;13.55;;;8.80;;
2810;SDS011;1413;52.440;13.506;2022-07-22T05:18:29;12.40;;;8.07;;
2810;SDS011;1413;52.440;13.506;2022-07-22T05:20:56;12.30;;;8.63;;
2810;SDS011;1413;52.440;13.506;2022-07-22T05:23:25;11.95;;;7.93;;
2810;SDS011;1413;52.440;13.506;2022-07-22T05:25:53;14.50;;;9.10;;
2810;SDS011;1413;52.440;13.506;2022-07-22T05:28:20;13.73;;;9.15;;
2810;SDS011;1413;52.440;13.506;2022-07-22T05:30:48;12.73;;;8.70;;
2810;SDS011;1413;52.440;13.506;2022-07-22T05:33:15;13.00;;;8.93;;
2810;SDS011;1413;52.440;13.506;2022-07-22T05:35:43;12.85;;;8.32;;
2810;SDS011;1413;52.440;13.506;2022-07-22T05:38:10;11.75;;;8.00;;
2810;SDS011;1413;52.440;13.506;2022-07-22T05:40:39;16.35;;;9.05;;
2810;SDS011;1413;52.440;13.506;2022-07-22T05:43:07;12.68;;;8.43;;
2810;SDS011;1413;52.440;13.506;2022-07-22T05:45:34;13.90;;;9.23;;
2810;SDS011;1413;52.440;13.506;2022-07-22T05:48:02;12.30;;;8.75;;
2810;SDS011;1413;52.440;13.506;2022-07-22T05:50:29;12.68;;;8.38;;
2810;SDS011;1413;52.440;13.506;2022-07-22T05:52:57;12.57;;;8.38;;
2810;SDS011;1413;52.440;13.506;2022-07-22T05:55:24;13.88;;;9.00;;
2810;SDS011;1413;52.440;13.506;2022-07-22T05:57:53;12.73;;;8.77;;
2810;SDS011;1413;52.440;13.506;2022-07-22T06:00:21;11.90;;;8.15;;
2810;SDS011;1413;52.440;13.506;2022-07-22T06:02:49;13.25;;;9.15;;
2810;SDS011;1413;52.440;13.506;2022-07-22T06:05:16;13.85;;;8.30;;
2810;SDS011;1413;52.440;13.506;2022-07-22T06:08:04;13.75;;;8.55;;
2810;SDS011;1413;52.440;13.506;2022-07-22T06:10:31;13.65;;;8.27;;
2810;SDS011;1413;52.440;13.506;2022-07-22T06:13:00;15.40;;;9.05;;
2810;SDS011;1413;52.440;13.506;2022-07-22T06:15:28;15.02;;;8.38;;
2810;SDS011;1413;52.440;13.506;2022-07-22T06:17:56;12.25;;;7.88;;
2810;SDS011;1413;52.440;13.506;2022-07-22T06:20:23;13.30;;;9.40;;
2810;SDS011;1413;52.440;13.506;2022-07-22T06:22:50;14.48;;;8.48;;
2810;SDS011;1413;52.440;13.506;2022-07-22T06:25:18;12.50;;;8.32;;
2810;SDS011;1413;52.440;13.506;2022-07-22T06:28:07;14.60;;;8.68;;
2810;SDS011;1413;52.440;13.506;2022-07-22T06:30:34;12.45;;;8.27;;
2810;SDS011;1413;52.440;13.506;2022-07-22T06:33:02;12.57;;;8.40;;
2810;SDS011;1413;52.440;13.506;2022-07-22T06:35:29;12.10;;;8.35;;
2810;SDS011;1413;52.440;13.506;2022-07-22T06:37:57;14.82;;;8.90;;
2810;SDS011;1413;52.440;13.506;2022-07-22T06:40:31;11.25;;;7.75;;
2810;SDS011;1413;52.440;13.506;2022-07-22T06:42:59;12.30;;;8.00;;
2810;SDS011;1413;52.440;13.506;2022-07-22T06:45:29;10.52;;;7.90;;
2810;SDS011;1413;52.440;13.506;2022-07-22T06:47:56;11.32;;;7.68;;
2810;SDS011;1413;52.440;13.506;2022-07-22T06:50:24;11.52;;;7.40;;
2810;SDS011;1413;52.440;13.506;2022-07-22T06:52:54;12.13;;;8.07;;
2810;SDS011;1413;52.440;13.506;2022-07-22T06:55:21;9.43;;;7.15;;
2810;SDS011;1413;52.440;13.506;2022-07-22T06:57:49;13.30;;;8.00;;
2810;SDS011;1413;52.440;13.506;2022-07-22T07:00:17;12.15;;;7.57;;
2810;SDS011;1413;52.440;13.506;2022-07-22T07:02:46;12.23;;;8.02;;
2810;SDS011;1413;52.440;13.506;2022-07-22T07:05:14;11.23;;;6.93;;
2810;SDS011;1413;52.440;13.506;2022-07-22T07:07:45;11.65;;;7.32;;
2810;SDS011;1413;52.440;13.506;2022-07-22T07:10:13;13.50;;;7.28;;
2810;SDS011;1413;52.440;13.506;2022-07-22T07:12:42;10.65;;;7.07;;
2810;SDS011;1413;52.440;13.506;2022-07-22T07:15:10;9.38;;;6.50;;
2810;SDS011;1413;52.440;13.506;2022-07-22T07:20:22;8.82;;;6.10;;
2810;SDS011;1413;52.440;13.506;2022-07-22T07:22:50;9.02;;;6.43;;
2810;SDS011;1413;52.440;13.506;2022-07-22T07:25:17;10.05;;;6.22;;
2810;SDS011;1413;52.440;13.506;2022-07-22T07:27:49;10.32;;;6.28;;
2810;SDS011;1413;52.440;13.506;2022-07-22T07:30:19;9.73;;;6.20;;
2810;SDS011;1413;52.440;13.506;2022-07-22T07:32:47;7.82;;;5.65;;
2810;SDS011;1413;52.440;13.506;2022-07-22T07:35:15;7.93;;;5.60;;
2810;SDS011;1413;52.440;13.506;2022-07-22T07:37:44;7.63;;;5.50;;
2810;SDS011;1413;52.440;13.506;2022-07-22T07:40:11;7.97;;;5.20;;
2810;SDS011;1413;52.440;13.506;2022-07-22T07:42:39;9.10;;;5.68;;
2810;SDS011;1413;52.440;13.506;2022-07-22T07:45:13;9.27;;;5.10;;
2810;SDS011;1413;52.440;13.506;2022-07-22T07:47:41;7.50;;;5.40;;
2810;SDS011;1413;52.440;13.506;2022-07-22T07:50:09;8.15;;;5.28;;
2810;SDS011;1413;52.440;13.506;2022-07-22T07:52:37;11.63;;;5.20;;
2810;SDS011;1413;52.440;13.506;2022-07-22T07:55:07;9.45;;;5.65;;
2810;SDS011;1413;52.440;13.506;2022-07-22T07:57:37;7.00;;;4.43;;
2810;SDS011;1413;52.440;13.506;2022-07-22T08:00:07;6.43;;;4.38;;
2810;SDS011;1413;52.440;13.506;2022-07-22T08:02:38;9.38;;;4.05;;
2810;SDS011;1413;52.440;13.506;2022-07-22T08:05:06;7.53;;;4.65;;
2810;SDS011;1413;52.440;13.506;2022-07-22T08:07:35;8.40;;;4.35;;
2810;SDS011;1413;52.440;13.506;2022-07-22T08:10:03;6.47;;;4.07;;
2810;SDS011;1413;52.440;13.506;2022-07-22T08:12:52;5.75;;;3.80;;
2810;SDS011;1413;52.440;13.506;2022-07-22T08:15:20;6.55;;;4.10;;
2810;SDS011;1413;52.440;13.506;2022-07-22T08:17:51;7.15;;;3.83;;
2810;SDS011;1413;52.440;13.506;2022-07-22T08:20:19;6.30;;;3.88;;
2810;SDS011;1413;52.440;13.506;2022-07-22T08:22:48;7.57;;;3.45;;
2810;SDS011;1413;52.440;13.506;2022-07-22T08:25:16;5.22;;;3.17;;
2810;SDS011;1413;52.440;13.506;2022-07-22T08:27:44;5.25;;;3.42;;
2810;SDS011;1413;52.440;13.506;2022-07-22T08:30:13;5.65;;;3.58;;
2810;SDS011;1413;52.440;13.506;2022-07-22T08:32:41;7.82;;;4.05;;
2810;SDS011;1413;52.440;13.506;2022-07-22T08:35:09;6.78;;;3.45;;
2810;SDS011;1413;52.440;13.506;2022-07-22T08:37:36;6.78;;;3.60;;
2810;SDS011;1413;52.440;13.506;2022-07-22T08:40:05;6.57;;;3.97;;
2810;SDS011;1413;52.440;13.506;2022-07-22T08:42:36;6.75;;;3.60;;
2810;SDS011;1413;52.440;13.506;2022-07-22T08:45:04;7.07;;;3.70;;
2810;SDS011;1413;52.440;13.506;2022-07-22T08:47:36;5.30;;;3.17;;
2810;SDS011;1413;52.440;13.506;2022-07-22T08:50:07;6.57;;;3.25;;
2810;SDS011;1413;52.440;13.506;2022-07-22T08:52:35;4.95;;;3.22;;
2810;SDS011;1413;52.440;13.506;2022-07-22T08:55:02;4.78;;;3.17;;
2810;SDS011;1413;52.440;13.506;2022-07-22T08:57:30;4.88;;;2.80;;
2810;SDS011;1413;52.440;13.506;2022-07-22T08:59:58;5.70;;;3.13;;
2810;SDS011;1413;52.440;13.506;2022-07-22T09:02:27;7.05;;;3.33;;
2810;SDS011;1413;52.440;13.506;2022-07-22T09:04:57;4.55;;;2.90;;
2810;SDS011;1413;52.440;13.506;2022-07-22T09:07:45;6.68;;;3.10;;
2810;SDS011;1413;52.440;13.506;2022-07-22T09:10:14;4.90;;;2.90;;
2810;SDS011;1413;52.440;13.506;2022-07-22T09:12:54;5.90;;;3.28;;
2810;SDS011;1413;52.440;13.506;2022-07-22T09:15:27;5.18;;;3.10;;
2810;SDS011;1413;52.440;13.506;2022-07-22T09:17:55;4.53;;;2.83;;
2810;SDS011;1413;52.440;13.506;2022-07-22T09:20:31;5.68;;;2.92;;
2810;SDS011;1413;52.440;13.506;2022-07-22T09:22:59;4.32;;;2.67;;
2810;SDS011;1413;52.440;13.506;2022-07-22T09:25:27;5.88;;;3.00;;
2810;SDS011;1413;52.440;13.506;2022-07-22T09:27:56;5.18;;;2.75;;
2810;SDS011;1413;52.440;13.506;2022-07-22T09:30:25;5.22;;;2.58;;
2810;SDS011;1413;52.440;13.506;2022-07-22T09:32:54;6.07;;;3.00;;
2810;SDS011;1413;52.440;13.506;2022-07-22T09:35:25;4.30;;;2.88;;
2810;SDS011;1413;52.440;13.506;2022-07-22T09:37:55;7.93;;;3.00;;
2810;SDS011;1413;52.440;13.506;2022-07-22T09:40:24;7.10;;;3.22;;
2810;SDS011;1413;52.440;13.506;2022-07-22T09:42:53;4.05;;;2.60;;
2810;SDS011;1413;52.440;13.506;2022-07-22T09:45:21;4.57;;;2.80;;
2810;SDS011;1413;52.440;13.506;2022-07-22T09:47:49;4.50;;;2.75;;
2810;SDS011;1413;52.440;13.506;2022-07-22T09:50:18;4.50;;;2.70;;
2810;SDS011;1413;52.440;13.506;2022-07-22T09:52:46;8.32;;;2.90;;
2810;SDS011;1413;52.440;13.506;2022-07-22T09:55:18;6.95;;;3.40;;
2810;SDS011;1413;52.440;13.506;2022-07-22T09:57:46;6.15;;;3.00;;
2810;SDS011;1413;52.440;13.506;2022-07-22T10:00:15;6.20;;;3.58;;
2810;SDS011;1413;52.440;13.506;2022-07-22T10:02:44;5.18;;;3.35;;
2810;SDS011;1413;52.440;13.506;2022-07-22T10:05:13;4.32;;;2.95;;
2810;SDS011;1413;52.440;13.506;2022-07-22T10:07:41;6.13;;;2.83;;
2810;SDS011;1413;52.440;13.506;2022-07-22T10:10:09;6.68;;;2.65;;
2810;SDS011;1413;52.440;13.506;2022-07-22T10:12:39;4.55;;;2.40;;
2810;SDS011;1413;52.440;13.506;2022-07-22T10:15:07;5.35;;;2.38;;
2810;SDS011;1413;52.440;13.506;2022-07-22T10:17:37;7.03;;;2.47;;
2810;SDS011;1413;52.440;13.506;2022-07-22T10:20:05;4.38;;;2.45;;
2810;SDS011;1413;52.440;13.506;2022-07-22T10:25:47;3.65;;;2.30;;
2810;SDS011;1413;52.440;13.506;2022-07-22T10:28:21;4.55;;;2.20;;
2810;SDS011;1413;52.440;13.506;2022-07-22T10:30:49;4.03;;;1.70;;
2810;SDS011;1413;52.440;13.506;2022-07-22T10:33:17;3.58;;;1.70;;
2810;SDS011;1413;52.440;13.506;2022-07-22T10:35:55;3.03;;;1.65;;
2810;SDS011;1413;52.440;13.506;2022-07-22T10:38:24;4.05;;;1.98;;
2810;SDS011;1413;52.440;13.506;2022-07-22T10:40:52;2.70;;;1.50;;
2810;SDS011;1413;52.440;13.506;2022-07-22T10:43:22;4.13;;;1.75;;
2810;SDS011;1413;52.440;13.506;2022-07-22T10:45:50;4.15;;;1.70;;
2810;SDS011;1413;52.440;13.506;2022-07-22T10:48:19;3.33;;;1.80;;
2810;SDS011;1413;52.440;13.506;2022-07-22T10:50:54;3.25;;;1.65;;
2810;SDS011;1413;52.440;13.506;2022-07-22T10:53:38;3.38;;;1.50;;
2810;SDS011;1413;52.440;13.506;2022-07-22T10:56:09;2.97;;;1.50;;
2810;SDS011;1413;52.440;13.506;2022-07-22T10:58:50;3.05;;;1.80;;
2810;SDS011;1413;52.440;13.506;2022-07-22T11:01:19;2.95;;;1.63;;
2810;SDS011;1413;52.440;13.506;2022-07-22T11:03:48;3.67;;;1.70;;
2810;SDS011;1413;52.440;13.506;2022-07-22T11:06:23;2.78;;;1.25;;
2810;SDS011;1413;52.440;13.506;2022-07-22T11:08:51;3.65;;;1.48;;
2810;SDS011;1413;52.440;13.506;2022-07-22T11:11:30;4.47;;;1.50;;
2810;SDS011;1413;52.440;13.506;2022-07-22T11:14:00;7.57;;;1.73;;
2810;SDS011;1413;52.440;13.506;2022-07-22T11:16:28;3.28;;;1.50;;
2810;SDS011;1413;52.440;13.506;2022-07-22T11:18:57;3.58;;;1.80;;
2810;SDS011;1413;52.440;13.506;2022-07-22T11:21:26;3.08;;;1.63;;
2810;SDS011;1413;52.440;13.506;2022-07-22T11:23:56;3.10;;;1.58;;
2810;SDS011;1413;52.440;13.506;2022-07-22T11:26:25;4.10;;;1.77;;
2810;SDS011;1413;52.440;13.506;2022-07-22T11:28:53;3.22;;;1.35;;
2810;SDS011;1413;52.440;13.506;2022-07-22T11:31:22;8.30;;;1.80;;
2810;SDS011;1413;52.440;13.506;2022-07-22T11:33:49;4.20;;;1.70;;
2810;SDS011;1413;52.440;13.506;2022-07-22T11:36:17;4.78;;;1.75;;
2810;SDS011;1413;52.440;13.506;2022-07-22T11:38:46;3.40;;;1.73;;
2810;SDS011;1413;52.440;13.506;2022-07-22T11:41:18;3.97;;;2.00;;
2810;SDS011;1413;52.440;13.506;2022-07-22T11:43:47;3.58;;;1.80;;
2810;SDS011;1413;52.440;13.506;2022-07-22T11:46:15;4.72;;;2.10;;
2810;SDS011;1413;52.440;13.506;2022-07-22T11:48:44;3.97;;;1.73;;
2810;SDS011;1413;52.440;13.506;2022-07-22T11:51:13;3.30;;;2.10;;
2810;SDS011;1413;52.440;13.506;2022-07-22T11:53:47;3.35;;;2.00;;
2810;SDS011;1413;52.440;13.506;2022-07-22T11:56:14;4.47;;;2.00;;
2810;SDS011;1413;52.440;13.506;2022-07-22T11:58:43;3.72;;;2.28;;
2810;SDS011;1413;52.440;13.506;2022-07-22T12:01:12;3.92;;;2.13;;
2810;SDS011;1413;52.440;13.506;2022-07-22T12:03:41;3.88;;;2.10;;
2810;SDS011;1413;52.440;13.506;2022-07-22T12:06:13;4.22;;;2.10;;
2810;SDS011;1413;52.440;13.506;2022-07-22T12:08:41;5.22;;;1.80;;
2810;SDS011;1413;52.440;13.506;2022-07-22T12:11:09;4.38;;;2.10;;
2810;SDS011;1413;52.440;13.506;2022-07-22T12:13:40;5.25;;;2.20;;
2810;SDS011;1413;52.440;13.506;2022-07-22T12:16:16;3.22;;;2.00;;
2810;SDS011;1413;52.440;13.506;2022-07-22T12:18:50;3.97;;;2.15;;
2810;SDS011;1413;52.440;13.506;2022-07-22T12:21:19;3.33;;;1.90;;
2810;SDS011;1413;52.440;13.506;2022-07-22T12:23:54;2.90;;;1.77;;
2810;SDS011;1413;52.440;13.506;2022-07-22T12:29:20;3.92;;;1.95;;
2810;SDS011;1413;52.440;13.506;2022-07-22T12:31:48;4.70;;;1.90;;
2810;SDS011;1413;52.440;13.506;2022-07-22T12:34:16;4.10;;;1.50;;
2810;SDS011;1413;52.440;13.506;2022-07-22T12:36:46;3.83;;;1.90;;
2810;SDS011;1413;52.440;13.506;2022-07-22T12:39:14;3.33;;;1.60;;
2810;SDS011;1413;52.440;13.506;2022-07-22T12:41:46;5.40;;;1.65;;
2810;SDS011;1413;52.440;13.506;2022-07-22T12:44:17;3.58;;;1.50;;
2810;SDS011;1413;52.440;13.506;2022-07-22T12:46:45;4.03;;;1.70;;
2810;SDS011;1413;52.440;13.506;2022-07-22T12:49:13;2.80;;;1.50;;
2810;SDS011;1413;52.440;13.506;2022-07-22T12:51:42;3.83;;;1.70;;
2810;SDS011;1413;52.440;13.506;2022-07-22T12:54:10;3.20;;;1.60;;
2810;SDS011;1413;52.440;13.506;2022-07-22T12:56:39;3.95;;;1.70;;
2810;SDS011;1413;52.440;13.506;2022-07-22T12:59:06;5.38;;;1.63;;
2810;SDS011;1413;52.440;13.506;2022-07-22T13:01:34;2.90;;;1.40;;
2810;SDS011;1413;52.440;13.506;2022-07-22T13:04:03;4.63;;;1.50;;
2810;SDS011;1413;52.440;13.506;2022-07-22T13:06:31;3.42;;;1.35;;
2810;SDS011;1413;52.440;13.506;2022-07-22T13:08:59;2.80;;;1.40;;
2810;SDS011;1413;52.440;13.506;2022-07-22T13:11:28;2.35;;;1.10;;
2810;SDS011;1413;52.440;13.506;2022-07-22T13:13:56;2.38;;;1.10;;
2810;SDS011;1413;52.440;13.506;2022-07-22T13:16:23;4.75;;;1.73;;
2810;SDS011;1413;52.440;13.506;2022-07-22T13:18:51;2.83;;;1.42;;
2810;SDS011;1413;52.440;13.506;2022-07-22T13:21:19;3.60;;;1.60;;
2810;SDS011;1413;52.440;13.506;2022-07-22T13:23:46;3.95;;;1.50;;
2810;SDS011;1413;52.440;13.506;2022-07-22T13:26:14;3.13;;;1.40;;
2810;SDS011;1413;52.440;13.506;2022-07-22T13:28:42;4.68;;;1.50;;
2810;SDS011;1413;52.440;13.506;2022-07-22T13:31:10;3.88;;;1.27;;
2810;SDS011;1413;52.440;13.506;2022-07-22T13:33:38;3.40;;;1.30;;
2810;SDS011;1413;52.440;13.506;2022-07-22T13:36:05;3.78;;;1.30;;
2810;SDS011;1413;52.440;13.506;2022-07-22T13:38:33;2.85;;;1.20;;
2810;SDS011;1413;52.440;13.506;2022-07-22T13:41:01;2.95;;;1.20;;
2810;SDS011;1413;52.440;13.506;2022-07-22T13:43:28;3.05;;;1.27;;
2810;SDS011;1413;52.440;13.506;2022-07-22T13:45:58;2.78;;;1.17;;
2810;SDS011;1413;52.440;13.506;2022-07-22T13:48:25;2.97;;;1.08;;
2810;SDS011;1413;52.440;13.506;2022-07-22T13:50:53;4.00;;;1.10;;
2810;SDS011;1413;52.440;13.506;2022-07-22T13:53:20;4.45;;;0.93;;
2810;SDS011;1413;52.440;13.506;2022-07-22T13:55:48;3.10;;;1.05;;
2810;SDS011;1413;52.440;13.506;2022-07-22T13:58:15;3.03;;;1.20;;
2810;SDS011;1413;52.440;13.506;2022-07-22T14:00:43;3.45;;;1.00;;
2810;SDS011;1413;52.440;13.506;2022-07-22T14:03:12;2.10;;;0.90;;
2810;SDS011;1413;52.440;13.506;2022-07-22T14:05:39;3.63;;;1.20;;
2810;SDS011;1413;52.440;13.506;2022-07-22T14:08:07;3.20;;;1.10;;
2810;SDS011;1413;52.440;13.506;2022-07-22T14:10:34;3.05;;;1.13;;
2810;SDS011;1413;52.440;13.506;2022-07-22T14:13:02;3.25;;;1.10;;
2810;SDS011;1413;52.440;13.506;2022-07-22T14:15:29;3.47;;;1.00;;
2810;SDS011;1413;52.440;13.506;2022-07-22T14:17:57;2.95;;;1.10;;
2810;SDS011;1413;52.440;13.506;2022-07-22T14:20:26;3.50;;;1.20;;
2810;SDS011;1413;52.440;13.506;2022-07-22T14:22:54;2.78;;;1.08;;
2810;SDS011;1413;52.440;13.506;2022-07-22T14:25:21;3.15;;;1.00;;
2810;SDS011;1413;52.440;13.506;2022-07-22T14:27:50;2.60;;;1.00;;
2810;SDS011;1413;52.440;13.506;2022-07-22T14:30:37;2.28;;;1.00;;
2810;SDS011;1413;52.440;13.506;2022-07-22T14:33:05;2.60;;;0.90;;
2810;SDS011;1413;52.440;13.506;2022-07-22T14:35:34;3.65;;;1.20;;
2810;SDS011;1413;52.440;13.506;2022-07-22T14:38:01;2.33;;;0.90;;
2810;SDS011;1413;52.440;13.506;2022-07-22T14:40:28;3.97;;;0.82;;
2810;SDS011;1413;52.440;13.506;2022-07-22T14:42:56;3.20;;;1.02;;
2810;SDS011;1413;52.440;13.506;2022-07-22T14:45:44;2.58;;;0.80;;
2810;SDS011;1413;52.440;13.506;2022-07-22T14:48:11;2.63;;;0.90;;
2810;SDS011;1413;52.440;13.506;2022-07-22T14:50:40;3.00;;;0.95;;
2810;SDS011;1413;52.440;13.506;2022-07-22T14:53:09;2.35;;;1.00;;
2810;SDS011;1413;52.440;13.506;2022-07-22T14:55:36;2.20;;;0.77;;
2810;SDS011;1413;52.440;13.506;2022-07-22T14:58:04;1.73;;;0.60;;
2810;SDS011;1413;52.440;13.506;2022-07-22T15:00:31;2.83;;;0.95;;
2810;SDS011;1413;52.440;13.506;2022-07-22T15:02:59;2.40;;;0.90;;
2810;SDS011;1413;52.440;13.506;2022-07-22T15:05:26;2.30;;;0.88;;
2810;SDS011;1413;52.440;13.506;2022-07-22T15:07:55;2.97;;;0.98;;
2810;SDS011;1413;52.440;13.506;2022-07-22T15:10:23;2.50;;;1.00;;
2810;SDS011;1413;52.440;13.506;2022-07-22T15:12:50;2.58;;;0.90;;
2810;SDS011;1413;52.440;13.506;2022-07-22T15:15:18;2.22;;;0.80;;